Time;durP1;ratioP1;P1;durP2;ratioP2;P2;SDS_P1;SDS_P2;PMS_P1;PMS_P2;Temp;Humidity;BMP_temperature;BMP_pressure;BME280_temperature;BME280_humidity;BME280_pressure;Samples;Min_cycle;Max_cycle;Signal;HPM_P1;HPM_P2
2022/05/07 00:00:29;;;;;;;18.15;12.23;;;15.70;62.00;;;;;;5113413;28;20024;-67
2022/05/07 00:02:54;;;;;;;18.90;12.73;;;15.70;62.00;;;;;;5113410;28;20111;-68
2022/05/07 00:05:20;;;;;;;18.83;12.55;;;15.60;62.20;;;;;;5095503;28;20028;-67
2022/05/07 00:07:46;;;;;;;20.98;12.27;;;15.50;62.60;;;;;;5095512;28;20032;-67
2022/05/07 00:10:12;;;;;;;18.20;11.68;;;15.40;62.70;;;;;;5113345;28;20036;-68
2022/05/07 00:12:38;;;;;;;16.65;11.18;;;15.50;62.60;;;;;;5113292;28;20028;-68
2022/05/07 00:15:04;;;;;;;19.77;12.55;;;15.50;62.50;;;;;;5113290;28;20028;-67
2022/05/07 00:20:15;;;;;;;18.30;11.98;;;15.50;62.20;;;;;;5113439;28;20067;-67
2022/05/07 00:22:40;;;;;;;19.85;12.18;;;15.50;62.40;;;;;;5113180;28;20158;-68
2022/05/07 00:25:06;;;;;;;19.33;11.90;;;15.50;62.30;;;;;;5113193;28;20028;-68
2022/05/07 00:27:32;;;;;;;21.45;13.05;;;15.50;62.20;;;;;;5113070;28;20062;-68
2022/05/07 00:29:57;;;;;;;19.92;13.65;;;15.40;62.50;;;;;;5115064;28;20036;-67
2022/05/07 00:32:23;;;;;;;20.67;14.10;;;15.40;62.40;;;;;;5117190;28;20025;-67
2022/05/07 00:34:48;;;;;;;26.00;15.73;;;15.30;62.60;;;;;;5117133;28;20025;-68
2022/05/07 00:37:14;;;;;;;30.60;19.30;;;15.30;62.90;;;;;;5099097;28;20071;-68
2022/05/07 00:39:40;;;;;;;30.50;17.75;;;15.30;63.10;;;;;;5117093;28;20107;-68
2022/05/07 00:42:06;;;;;;;25.92;16.90;;;15.30;63.30;;;;;;5099101;28;20023;-68
2022/05/07 00:44:33;;;;;;;24.55;14.88;;;15.40;63.30;;;;;;5116954;28;20020;-67
2022/05/07 00:47:34;;;;;;;22.77;15.27;;;15.30;63.10;;;;;;5116952;28;20028;-68
2022/05/07 00:52:46;;;;;;;21.75;14.55;;;15.30;63.40;;;;;;5117091;28;20055;-68
2022/05/07 00:55:13;;;;;;;19.42;13.73;;;15.40;63.40;;;;;;5116769;28;20471;-68
2022/05/07 00:57:39;;;;;;;26.05;16.50;;;15.40;63.40;;;;;;5116706;28;20028;-68
2022/05/07 01:00:06;;;;;;;23.52;16.63;;;15.40;63.30;;;;;;5116652;28;20024;-68
2022/05/07 01:02:32;;;;;;;26.17;16.40;;;15.30;63.70;;;;;;5116711;28;20020;-68
2022/05/07 01:04:59;;;;;;;25.15;16.33;;;15.10;64.00;;;;;;5116586;28;20024;-68
2022/05/07 01:07:25;;;;;;;26.33;15.80;;;15.10;65.00;;;;;;5116583;28;20036;-68
2022/05/07 01:09:50;;;;;;;25.27;15.77;;;15.10;65.00;;;;;;5098586;28;20028;-67
2022/05/07 01:12:17;;;;;;;25.65;16.58;;;15.10;65.00;;;;;;5116490;28;20017;-68
2022/05/07 01:14:43;;;;;;;27.10;17.17;;;15.20;65.10;;;;;;5116410;28;20111;-67
2022/05/07 01:17:09;;;;;;;27.75;18.23;;;15.00;65.50;;;;;;5116345;28;20036;-68
2022/05/07 01:19:35;;;;;;;27.60;17.30;;;14.90;65.60;;;;;;5098399;28;20047;-68
2022/05/07 01:22:02;;;;;;;24.48;17.15;;;15.00;65.30;;;;;;5098492;28;20024;-68
2022/05/07 01:24:27;;;;;;;23.05;15.32;;;14.90;65.40;;;;;;5116218;28;20036;-68
2022/05/07 01:26:53;;;;;;;27.73;16.15;;;14.90;65.30;;;;;;5098236;28;20437;-68
2022/05/07 01:29:18;;;;;;;27.58;17.25;;;14.90;65.60;;;;;;5116047;28;20044;-68
2022/05/07 01:31:44;;;;;;;25.67;16.20;;;14.90;65.60;;;;;;5098164;28;20114;-68
2022/05/07 01:34:10;;;;;;;26.23;16.92;;;14.90;65.60;;;;;;5098121;28;20084;-68
2022/05/07 01:36:36;;;;;;;25.38;16.77;;;14.80;65.70;;;;;;5098178;28;20032;-68
2022/05/07 01:39:01;;;;;;;25.30;15.90;;;14.90;66.00;;;;;;5097852;28;20116;-68
2022/05/07 01:41:27;;;;;;;23.55;15.68;;;15.00;66.00;;;;;;5115682;28;20111;-68
2022/05/07 01:43:53;;;;;;;22.95;15.70;;;15.00;65.90;;;;;;5097930;28;20052;-68
2022/05/07 01:49:04;;;;;;;26.05;16.85;;;14.90;65.70;;;;;;5115865;28;20058;-68
2022/05/07 01:51:30;;;;;;;27.80;16.27;;;14.80;66.30;;;;;;5115624;28;20028;-68
2022/05/07 01:53:55;;;;;;;24.80;16.25;;;14.70;66.40;;;;;;5097919;28;20024;-68
2022/05/07 01:56:21;;;;;;;24.48;15.80;;;14.70;66.60;;;;;;5115614;28;20032;-68
2022/05/07 01:58:48;;;;;;;23.55;15.95;;;14.70;66.80;;;;;;5115579;28;20054;-68
2022/05/07 02:01:14;;;;;;;23.75;16.65;;;14.70;67.00;;;;;;5115495;28;20021;-68
2022/05/07 02:03:40;;;;;;;25.52;16.73;;;14.60;66.90;;;;;;5115404;28;20028;-68
2022/05/07 02:06:06;;;;;;;27.40;17.05;;;14.50;67.10;;;;;;5115433;28;20028;-68
2022/05/07 02:08:32;;;;;;;31.15;18.42;;;14.60;67.40;;;;;;5097531;28;20032;-68
2022/05/07 02:11:01;;;;;;;27.20;17.33;;;14.50;67.40;;;;;;5115349;28;20055;-68
2022/05/07 02:13:28;;;;;;;26.63;17.05;;;14.60;67.40;;;;;;5115377;28;20049;-68
2022/05/07 02:15:53;;;;;;;25.95;17.27;;;14.70;66.90;;;;;;5115222;28;20027;-68
2022/05/07 02:18:19;;;;;;;27.83;17.65;;;14.50;67.00;;;;;;5097366;28;20024;-67
2022/05/07 02:20:45;;;;;;;25.85;17.38;;;14.50;67.50;;;;;;5115128;28;20032;-68
2022/05/07 02:23:10;;;;;;;28.30;18.50;;;14.40;67.70;;;;;;5115090;28;20092;-68
2022/05/07 02:25:36;;;;;;;30.95;18.13;;;14.50;67.60;;;;;;5097118;28;20036;-68
2022/05/07 02:28:03;;;;;;;27.50;18.90;;;14.70;67.50;;;;;;5114887;28;20039;-68
2022/05/07 02:30:29;;;;;;;26.85;17.77;;;14.70;67.60;;;;;;5114840;28;20024;-68
2022/05/07 02:32:54;;;;;;;28.50;17.23;;;14.70;68.50;;;;;;5114829;28;20036;-68
2022/05/07 02:35:21;;;;;;;29.42;17.00;;;14.70;67.50;;;;;;5080124;28;20016;-68
2022/05/07 02:37:48;;;;;;;26.60;16.70;;;14.80;67.30;;;;;;5114565;28;20104;-68
2022/05/07 02:40:13;;;;;;;29.73;17.40;;;14.80;67.20;;;;;;5114709;28;20070;-68
2022/05/07 02:42:41;;;;;;;28.10;18.25;;;14.70;67.40;;;;;;5096854;28;20016;-68
2022/05/07 02:45:09;;;;;;;26.90;17.52;;;14.60;67.80;;;;;;5114626;28;20032;-68
2022/05/07 02:47:36;;;;;;;28.25;17.95;;;14.60;67.90;;;;;;5114552;28;20047;-68
2022/05/07 02:50:03;;;;;;;28.35;17.88;;;14.70;67.70;;;;;;5096818;28;20053;-68
2022/05/07 02:52:32;;;;;;;28.63;17.45;;;14.60;67.80;;;;;;5113868;28;20076;-68
2022/05/07 02:55:01;;;;;;;25.17;17.58;;;14.40;68.40;;;;;;5114485;28;20021;-68
2022/05/07 02:57:27;;;;;;;28.83;17.27;;;14.30;68.80;;;;;;5114409;28;20111;-68
2022/05/07 02:59:53;;;;;;;25.92;16.83;;;14.40;68.90;;;;;;5079732;28;20028;-68
2022/05/07 03:02:19;;;;;;;26.85;17.58;;;14.50;68.50;;;;;;5114432;28;20482;-68
2022/05/07 03:04:47;;;;;;;23.45;16.42;;;14.40;68.80;;;;;;5114246;28;20410;-68
2022/05/07 03:07:15;;;;;;;27.35;17.40;;;14.40;69.10;;;;;;5114354;28;20024;-68
2022/05/07 03:09:41;;;;;;;26.50;16.23;;;14.30;69.10;;;;;;5114115;28;20020;-68
2022/05/07 03:12:09;;;;;;;26.90;16.55;;;14.20;69.30;;;;;;5096343;28;20027;-68
2022/05/07 03:14:34;;;;;;;26.67;16.77;;;14.20;69.50;;;;;;5114199;28;20071;-68
2022/05/07 03:17:00;;;;;;;28.85;16.58;;;14.20;69.70;;;;;;5096281;28;20090;-68
2022/05/07 03:19:26;;;;;;;26.55;16.48;;;14.20;69.90;;;;;;5113980;28;20031;-68
2022/05/07 03:21:51;;;;;;;25.88;16.42;;;14.10;70.10;;;;;;5114089;28;20032;-68
2022/05/07 03:24:17;;;;;;;22.15;16.00;;;14.20;70.00;;;;;;5113920;28;20092;-68
2022/05/07 03:26:43;;;;;;;25.90;16.48;;;14.20;70.10;;;;;;5095956;28;20032;-68
2022/05/07 03:29:09;;;;;;;28.23;16.02;;;14.20;70.00;;;;;;5113805;28;20084;-68
2022/05/07 03:31:34;;;;;;;24.98;16.15;;;14.30;70.00;;;;;;5113736;28;20024;-68
2022/05/07 03:34:00;;;;;;;25.52;15.52;;;14.20;69.80;;;;;;5113784;28;20040;-68
2022/05/07 03:36:26;;;;;;;27.58;16.90;;;14.20;69.90;;;;;;5113728;28;20028;-68
2022/05/07 03:38:51;;;;;;;25.45;15.98;;;14.20;70.00;;;;;;5112852;28;20052;-68
2022/05/07 03:41:19;;;;;;;27.65;16.25;;;14.10;70.00;;;;;;5095004;28;20030;-68
2022/05/07 03:43:45;;;;;;;26.42;17.13;;;14.00;70.20;;;;;;5112969;28;20031;-68
2022/05/07 03:46:10;;;;;;;25.50;16.58;;;14.10;70.30;;;;;;5112930;28;20028;-68
2022/05/07 03:48:36;;;;;;;27.92;16.42;;;14.10;70.30;;;;;;5094908;28;20028;-68
2022/05/07 03:51:01;;;;;;;23.60;16.20;;;14.00;70.30;;;;;;5094910;28;20032;-68
2022/05/07 03:53:30;;;;;;;25.20;15.85;;;14.00;70.40;;;;;;5112797;28;20020;-68
2022/05/07 03:56:06;;;;;;;28.75;16.65;;;14.00;70.60;;;;;;5112668;28;20025;-68
2022/05/07 03:58:33;;;;;;;29.20;17.00;;;14.10;70.70;;;;;;5112698;28;20047;-68
2022/05/07 04:00:59;;;;;;;29.38;16.83;;;14.00;70.60;;;;;;5112578;28;20024;-68
2022/05/07 04:03:26;;;;;;;27.83;17.15;;;14.10;70.80;;;;;;5111902;28;20031;-68
2022/05/07 04:05:52;;;;;;;28.48;17.13;;;14.00;70.80;;;;;;5112013;28;20027;-68
2022/05/07 04:08:18;;;;;;;27.10;16.35;;;14.00;71.00;;;;;;5112526;28;20047;-68
2022/05/07 04:10:44;;;;;;;27.05;17.05;;;14.00;70.90;;;;;;5112421;28;20032;-68
2022/05/07 04:13:11;;;;;;;26.70;16.10;;;14.00;70.80;;;;;;5112442;28;20024;-68
2022/05/07 04:15:38;;;;;;;26.50;15.93;;;14.00;70.70;;;;;;5112425;28;20020;-68
2022/05/07 04:18:05;;;;;;;27.20;16.27;;;14.10;70.80;;;;;;5077760;28;20031;-68
2022/05/07 04:20:31;;;;;;;26.38;15.85;;;14.10;70.70;;;;;;5112368;28;20027;-68
2022/05/07 04:22:57;;;;;;;23.95;14.93;;;14.20;70.60;;;;;;5112351;28;20095;-68
2022/05/07 04:25:22;;;;;;;24.95;16.00;;;14.20;71.10;;;;;;5112325;28;20028;-68
2022/05/07 04:27:48;;;;;;;22.83;14.98;;;14.30;70.20;;;;;;5112201;28;20024;-68
2022/05/07 04:30:13;;;;;;;24.48;15.57;;;14.30;70.20;;;;;;5077568;28;20024;-68
2022/05/07 04:32:39;;;;;;;23.42;16.23;;;14.30;70.30;;;;;;5094463;28;20073;-68
2022/05/07 04:35:06;;;;;;;26.08;15.95;;;14.20;70.40;;;;;;5077781;28;20020;-68
2022/05/07 04:37:31;;;;;;;24.77;16.55;;;14.10;70.80;;;;;;5073897;28;1087218;-68
2022/05/07 04:39:57;;;;;;;26.05;16.48;;;14.10;71.10;;;;;;5095236;28;20059;-68
2022/05/07 04:42:23;;;;;;;27.92;16.48;;;14.20;70.90;;;;;;5113033;28;20036;-68
2022/05/07 04:44:48;;;;;;;25.70;17.20;;;14.30;70.70;;;;;;5113023;28;20043;-68
2022/05/07 04:47:14;;;;;;;30.08;18.95;;;14.30;71.40;;;;;;5095132;28;20040;-68
2022/05/07 04:49:40;;;;;;;28.25;18.35;;;14.20;70.90;;;;;;5094982;28;20024;-68
2022/05/07 04:52:05;;;;;;;27.80;18.55;;;14.00;71.10;;;;;;5078266;28;20028;-68
2022/05/07 04:54:32;;;;;;;29.33;18.55;;;14.00;71.30;;;;;;5112902;28;20027;-68
2022/05/07 04:56:58;;;;;;;28.85;19.05;;;14.10;71.10;;;;;;5112886;28;20017;-68
2022/05/07 04:59:24;;;;;;;30.08;18.30;;;14.20;70.80;;;;;;5112891;28;20050;-68
2022/05/07 05:01:49;;;;;;;31.33;19.25;;;14.10;70.60;;;;;;5113014;28;20062;-68
2022/05/07 05:04:16;;;;;;;31.00;19.60;;;14.20;70.80;;;;;;5112856;28;20032;-68
2022/05/07 05:06:42;;;;;;;31.80;19.20;;;14.20;70.70;;;;;;5112838;28;20082;-68
2022/05/07 05:09:09;;;;;;;30.30;18.80;;;14.20;70.60;;;;;;5112781;28;20028;-68
2022/05/07 05:11:37;;;;;;;32.88;19.13;;;14.30;71.30;;;;;;5094606;28;20024;-68
2022/05/07 05:15:01;;;;;;;30.45;19.83;;;14.30;70.10;;;;;;5112693;28;20088;-68
2022/05/07 05:16:49;;;;;;;32.88;18.95;;;14.40;69.90;;;;;;5115008;28;20036;-68
2022/05/07 05:19:15;;;;;;;28.05;18.38;;;14.40;69.90;;;;;;5116314;28;20034;-68
2022/05/07 05:21:41;;;;;;;28.27;19.02;;;14.40;69.90;;;;;;5098600;28;20031;-68
2022/05/07 05:24:07;;;;;;;27.73;18.35;;;14.40;70.10;;;;;;5116271;28;20039;-68
2022/05/07 05:26:33;;;;;;;31.48;18.90;;;14.40;70.50;;;;;;5116213;28;20067;-68
2022/05/07 05:28:58;;;;;;;33.83;20.63;;;14.40;70.90;;;;;;5116050;28;20062;-68
2022/05/07 05:31:24;;;;;;;35.58;22.52;;;14.40;71.00;;;;;;5116072;28;20035;-68
2022/05/07 05:33:49;;;;;;;36.30;22.88;;;14.40;72.30;;;;;;5081386;28;20080;-68
2022/05/07 05:36:15;;;;;;;36.67;22.63;;;14.40;71.50;;;;;;5115988;28;20032;-68
2022/05/07 05:38:41;;;;;;;33.25;22.17;;;14.50;71.60;;;;;;5115838;28;20074;-68
2022/05/07 05:41:07;;;;;;;38.00;23.45;;;14.50;71.80;;;;;;5115890;28;20039;-68
2022/05/07 05:43:32;;;;;;;37.65;23.73;;;14.50;72.10;;;;;;5098050;28;20028;-68
2022/05/07 05:45:59;;;;;;;39.90;24.77;;;14.50;72.20;;;;;;5081160;28;20059;-68
2022/05/07 05:48:29;;;;;;;40.28;25.02;;;14.50;72.30;;;;;;5115973;28;20472;-68
2022/05/07 05:50:55;;;;;;;39.03;25.13;;;14.50;72.60;;;;;;5098336;28;20027;-68
2022/05/07 05:53:20;;;;;;;39.67;24.88;;;14.50;72.90;;;;;;5115640;28;20102;-68
2022/05/07 05:55:47;;;;;;;41.88;26.05;;;14.60;72.90;;;;;;5097825;28;20028;-68
2022/05/07 05:58:13;;;;;;;38.00;25.38;;;14.70;72.90;;;;;;5115743;28;20032;-68
2022/05/07 06:00:38;;;;;;;45.50;27.83;;;14.80;72.80;;;;;;5115492;28;20020;-68
2022/05/07 06:03:04;;;;;;;42.08;27.38;;;14.90;72.60;;;;;;5115446;28;20028;-68
2022/05/07 06:05:30;;;;;;;41.33;27.40;;;14.80;72.60;;;;;;5115443;28;20028;-68
2022/05/07 06:07:56;;;;;;;44.58;27.92;;;14.80;73.00;;;;;;5115412;28;20429;-68
2022/05/07 06:10:22;;;;;;;43.58;26.70;;;14.80;73.20;;;;;;5115280;28;20032;-68
2022/05/07 06:12:47;;;;;;;44.72;27.83;;;14.90;73.30;;;;;;5097383;28;20087;-68
2022/05/07 06:15:13;;;;;;;43.38;27.60;;;15.00;73.70;;;;;;5097283;28;20474;-68
2022/05/07 06:17:38;;;;;;;41.50;26.55;;;15.00;74.10;;;;;;5115184;28;20039;-68
2022/05/07 06:20:05;;;;;;;41.13;26.15;;;15.10;73.70;;;;;;5115105;28;20048;-68
2022/05/07 06:22:30;;;;;;;41.10;25.63;;;15.20;73.70;;;;;;5115224;28;20055;-68
2022/05/07 06:27:40;;;;;;;42.92;25.83;;;15.30;72.90;;;;;;5114042;28;20039;-69
2022/05/07 06:30:07;;;;;;;40.20;23.90;;;15.40;72.60;;;;;;5115013;28;20379;-69
2022/05/07 06:32:36;;;;;;;41.80;24.50;;;15.50;72.40;;;;;;5114891;28;20036;-69
2022/05/07 06:35:06;;;;;;;37.05;23.70;;;15.60;72.10;;;;;;5096889;28;20024;-69
2022/05/07 06:37:34;;;;;;;35.95;22.25;;;15.70;71.60;;;;;;5114591;28;20055;-69
2022/05/07 06:40:00;;;;;;;36.72;21.55;;;15.70;71.20;;;;;;5096976;28;20024;-69
2022/05/07 06:42:26;;;;;;;33.03;20.20;;;15.80;71.10;;;;;;5114812;28;20028;-69
2022/05/07 06:44:52;;;;;;;30.75;20.33;;;15.80;70.70;;;;;;5114714;28;20028;-69
2022/05/07 06:47:17;;;;;;;29.00;19.50;;;15.90;70.40;;;;;;5096752;28;20028;-69
2022/05/07 06:49:43;;;;;;;29.48;19.10;;;16.00;69.80;;;;;;5114457;28;20040;-70
2022/05/07 06:52:09;;;;;;;28.92;18.08;;;16.00;69.30;;;;;;5114470;28;20020;-70
2022/05/07 06:54:35;;;;;;;31.20;17.83;;;16.00;68.90;;;;;;5114469;28;20034;-70
2022/05/07 06:57:03;;;;;;;30.52;18.70;;;16.10;68.80;;;;;;5096513;28;20032;-71
2022/05/07 06:59:32;;;;;;;29.40;16.55;;;16.20;68.60;;;;;;5114290;28;20027;-70
2022/05/07 07:01:58;;;;;;;28.63;16.67;;;16.20;68.10;;;;;;5114359;28;20024;-70
2022/05/07 07:04:27;;;;;;;26.10;15.20;;;16.30;67.50;;;;;;5096411;28;20040;-70
2022/05/07 07:06:52;;;;;;;23.58;15.10;;;16.40;66.90;;;;;;5114277;28;20032;-69
2022/05/07 07:09:18;;;;;;;28.13;15.85;;;16.50;66.60;;;;;;5114300;28;20039;-70
2022/05/07 07:11:44;;;;;;;24.77;14.73;;;16.50;66.60;;;;;;5114121;28;20054;-69
2022/05/07 07:14:10;;;;;;;25.33;14.32;;;16.60;66.50;;;;;;5114132;28;20032;-69
2022/05/07 07:16:36;;;;;;;25.83;14.82;;;16.70;65.90;;;;;;5114080;28;20042;-70
2022/05/07 07:19:02;;;;;;;24.63;14.38;;;16.80;65.50;;;;;;5114071;28;20024;-70
2022/05/07 07:21:28;;;;;;;22.90;14.52;;;16.80;65.20;;;;;;5113978;28;20024;-69
2022/05/07 07:23:53;;;;;;;20.80;13.55;;;16.90;65.10;;;;;;5114052;28;20043;-69
2022/05/07 07:26:19;;;;;;;24.98;14.05;;;17.00;65.10;;;;;;5113881;28;20032;-69
2022/05/07 07:28:45;;;;;;;24.63;13.98;;;17.10;64.90;;;;;;5095797;28;20029;-69
2022/05/07 07:31:11;;;;;;;25.35;14.20;;;17.10;64.50;;;;;;5113788;28;20031;-69
2022/05/07 07:33:41;;;;;;;22.13;13.45;;;17.20;63.90;;;;;;5095931;28;20032;-69
2022/05/07 07:36:08;;;;;;;24.23;14.18;;;17.30;63.70;;;;;;5113757;28;20016;-69
2022/05/07 07:38:34;;;;;;;22.23;13.75;;;17.40;63.50;;;;;;5095377;28;20048;-69
2022/05/07 07:41:00;;;;;;;24.65;14.50;;;17.50;63.50;;;;;;5113648;28;20023;-69
2022/05/07 07:43:26;;;;;;;23.92;13.88;;;17.60;63.10;;;;;;5113629;28;20025;-69
2022/05/07 07:48:35;;;;;;;24.08;14.85;;;17.70;63.00;;;;;;5113608;28;20039;-67
2022/05/07 07:51:02;;;;;;;25.83;14.68;;;17.80;63.00;;;;;;5113561;28;20034;-69
2022/05/07 07:53:27;;;;;;;24.27;14.23;;;17.80;62.80;;;;;;5113514;28;20027;-68
2022/05/07 07:55:53;;;;;;;24.27;13.88;;;17.90;62.90;;;;;;5113484;28;20031;-68
2022/05/07 07:58:18;;;;;;;22.65;13.50;;;17.90;62.50;;;;;;5095562;28;20016;-68
2022/05/07 08:00:44;;;;;;;24.92;14.23;;;18.10;62.60;;;;;;5113465;28;20459;-68
2022/05/07 08:03:15;;;;;;;19.80;13.38;;;18.20;62.20;;;;;;5095618;28;20028;-68
2022/05/07 08:05:43;;;;;;;22.73;13.35;;;18.30;61.80;;;;;;5095723;28;20051;-68
2022/05/07 08:13:41;;;;;;;26.70;15.07;;;18.50;61.30;;;;;;5113528;28;20055;-69
2022/05/07 08:16:07;;;;;;;25.70;15.63;;;18.60;60.50;;;;;;5113177;28;20016;-69
2022/05/07 08:18:34;;;;;;;25.80;15.27;;;18.60;60.20;;;;;;5113082;28;20047;-68
2022/05/07 08:21:01;;;;;;;26.02;15.18;;;18.70;60.10;;;;;;5113138;28;20054;-68
2022/05/07 08:23:27;;;;;;;23.77;14.82;;;18.80;59.80;;;;;;5113168;28;20029;-69
2022/05/07 08:25:53;;;;;;;24.65;14.48;;;18.80;60.00;;;;;;5113309;28;20032;-68
2022/05/07 08:28:19;;;;;;;28.42;15.35;;;18.90;60.00;;;;;;5095399;28;20035;-68
2022/05/07 08:30:45;;;;;;;23.50;15.10;;;18.90;58.80;;;;;;5095354;28;20024;-68
2022/05/07 08:33:11;;;;;;;25.98;15.60;;;19.00;58.50;;;;;;5113075;28;20020;-68
2022/05/07 08:35:37;;;;;;;26.88;15.98;;;18.90;58.70;;;;;;5113026;28;20025;-68
2022/05/07 08:38:03;;;;;;;24.70;15.60;;;18.90;57.70;;;;;;5112915;28;20066;-68
2022/05/07 08:40:29;;;;;;;26.50;15.70;;;18.90;57.30;;;;;;5113019;28;20028;-68
2022/05/07 08:42:56;;;;;;;24.15;15.35;;;18.90;57.30;;;;;;5095171;28;20028;-68
2022/05/07 08:45:22;;;;;;;27.52;15.32;;;19.00;56.90;;;;;;5112909;28;20042;-68
2022/05/07 08:47:54;;;;;;;28.77;15.55;;;19.00;57.40;;;;;;5112867;28;20024;-68
2022/05/07 08:50:20;;;;;;;29.10;16.38;;;19.10;57.70;;;;;;5113672;28;20379;-68
2022/05/07 08:52:46;;;;;;;32.35;17.15;;;19.10;57.00;;;;;;5116795;28;20027;-68
2022/05/07 08:55:14;;;;;;;26.90;16.17;;;19.10;56.90;;;;;;5116747;28;20028;-68
2022/05/07 08:57:41;;;;;;;27.38;16.08;;;19.20;57.80;;;;;;5116752;28;20021;-69
2022/05/07 09:00:07;;;;;;;27.75;16.05;;;19.20;57.90;;;;;;5098842;28;20028;-68
2022/05/07 09:02:48;;;;;;;27.23;16.42;;;19.20;56.50;;;;;;5098811;28;20091;-68
2022/05/07 09:05:19;;;;;;;26.23;14.63;;;19.30;56.60;;;;;;5116679;28;20494;-69
2022/05/07 09:07:56;;;;;;;26.17;15.48;;;19.30;56.70;;;;;;5116535;28;20020;-69
2022/05/07 09:10:29;;;;;;;27.25;15.98;;;19.30;56.50;;;;;;5116585;28;20031;-68
2022/05/07 09:13:18;;;;;;;29.05;16.08;;;19.30;56.80;;;;;;5116524;28;20080;-68
2022/05/07 09:15:58;;;;;;;29.27;16.13;;;19.40;56.90;;;;;;5097832;28;20036;-68
2022/05/07 09:18:25;;;;;;;27.55;15.75;;;19.50;55.90;;;;;;5098249;28;20028;-68
2022/05/07 09:21:26;;;;;;;28.88;16.73;;;19.50;56.10;;;;;;5116303;28;20395;-68
2022/05/07 09:23:58;;;;;;;24.25;16.02;;;19.60;55.60;;;;;;5116399;28;20028;-68
2022/05/07 09:26:40;;;;;;;23.15;13.10;;;19.70;55.50;;;;;;5116164;28;20080;-68
2022/05/07 09:29:11;;;;;;;27.33;15.27;;;19.80;53.10;;;;;;5097990;28;20101;-68
2022/05/07 09:31:41;;;;;;;21.98;12.48;;;19.90;53.40;;;;;;5115837;28;20054;-68
2022/05/07 09:37:19;;;;;;;27.17;14.38;;;20.10;52.90;;;;;;5115914;28;20054;-69
2022/05/07 09:39:50;;;;;;;22.75;13.75;;;20.10;54.90;;;;;;5115943;28;20032;-68
2022/05/07 09:42:19;;;;;;;21.38;13.40;;;20.10;52.00;;;;;;5116031;28;20020;-68
2022/05/07 09:44:45;;;;;;;22.42;13.02;;;20.20;53.10;;;;;;5115811;28;20039;-68
2022/05/07 09:47:12;;;;;;;24.38;14.43;;;20.50;53.70;;;;;;5115748;28;20017;-68
2022/05/07 09:52:32;;;;;;;19.88;11.85;;;20.70;49.10;;;;;;5115877;28;20075;-68
2022/05/07 09:57:43;;;;;;;24.17;14.98;;;20.80;50.50;;;;;;5115860;28;20026;-68
2022/05/07 10:00:13;;;;;;;31.45;16.40;;;20.80;50.10;;;;;;5115538;28;20044;-68
2022/05/07 10:03:01;;;;;;;28.30;14.98;;;20.80;50.90;;;;;;5115567;28;20397;-68
2022/05/07 10:05:45;;;;;;;25.52;15.73;;;20.90;50.50;;;;;;5097476;28;20028;-68
2022/05/07 10:08:21;;;;;;;27.58;16.27;;;20.90;49.70;;;;;;5115314;28;20036;-68
2022/05/07 10:10:48;;;;;;;28.30;16.00;;;21.00;50.40;;;;;;5115349;28;20107;-68
2022/05/07 10:13:18;;;;;;;25.25;15.05;;;21.10;49.60;;;;;;5115240;28;20039;-68
2022/05/07 10:15:45;;;;;;;32.22;16.95;;;21.10;49.50;;;;;;5097330;28;20031;-68
2022/05/07 10:18:14;;;;;;;24.35;15.32;;;21.10;50.00;;;;;;5115157;28;20080;-68
2022/05/07 10:20:46;;;;;;;27.83;14.80;;;21.10;50.90;;;;;;5115173;28;20032;-68
2022/05/07 10:23:13;;;;;;;25.50;14.52;;;21.20;49.00;;;;;;5115120;28;20048;-68
2022/05/07 10:25:54;;;;;;;23.55;12.77;;;21.30;48.50;;;;;;5097108;28;20024;-68
2022/05/07 10:28:20;;;;;;;21.75;12.32;;;21.40;48.10;;;;;;5114950;28;20031;-68
2022/05/07 10:30:50;;;;;;;22.58;12.77;;;21.50;47.30;;;;;;5114891;28;20024;-68
2022/05/07 10:33:18;;;;;;;23.23;11.88;;;21.70;48.50;;;;;;5097151;28;20032;-68
2022/05/07 10:35:52;;;;;;;22.10;11.38;;;21.90;48.40;;;;;;5114829;28;20020;-68
2022/05/07 10:38:30;;;;;;;16.65;10.32;;;22.00;45.90;;;;;;5114603;28;20123;-68
2022/05/07 10:41:01;;;;;;;19.40;10.40;;;22.10;46.30;;;;;;5114832;28;20040;-68
2022/05/07 10:43:36;;;;;;;20.15;10.07;;;22.30;45.30;;;;;;5114753;28;20028;-68
2022/05/07 10:46:10;;;;;;;18.98;9.48;;;22.40;44.10;;;;;;5114843;28;20059;-68
2022/05/07 10:48:50;;;;;;;17.10;9.90;;;22.40;44.00;;;;;;5114440;28;20027;-69
2022/05/07 10:51:35;;;;;;;21.38;10.73;;;22.60;45.10;;;;;;5114679;28;20075;-69
2022/05/07 10:54:19;;;;;;;18.65;10.43;;;22.60;42.10;;;;;;5114502;28;20020;-69
2022/05/07 10:56:50;;;;;;;17.00;10.38;;;22.40;42.70;;;;;;5114441;28;20044;-68
2022/05/07 10:59:16;;;;;;;20.27;9.83;;;22.50;42.30;;;;;;5096523;28;20024;-68
2022/05/07 11:01:42;;;;;;;20.10;10.40;;;22.50;44.90;;;;;;5114410;28;20296;-69
2022/05/07 11:04:11;;;;;;;21.92;10.85;;;22.60;44.10;;;;;;5096469;28;20024;-69
2022/05/07 11:06:42;;;;;;;17.70;10.27;;;22.70;43.80;;;;;;5114458;28;20082;-68
2022/05/07 11:09:18;;;;;;;19.67;11.15;;;22.80;43.60;;;;;;5114303;28;20024;-69
2022/05/07 11:11:49;;;;;;;17.23;10.55;;;22.60;43.30;;;;;;5114122;28;20032;-68
2022/05/07 11:14:23;;;;;;;16.70;10.60;;;22.60;43.90;;;;;;5113671;28;20024;-68
2022/05/07 11:16:48;;;;;;;18.63;10.07;;;22.60;44.50;;;;;;5114134;28;20024;-68
2022/05/07 11:19:35;;;;;;;17.35;9.65;;;22.50;43.30;;;;;;5114038;28;20041;-68
2022/05/07 11:22:04;;;;;;;15.85;9.18;;;22.40;42.70;;;;;;5113911;28;20016;-68
2022/05/07 11:24:31;;;;;;;17.17;8.93;;;22.40;43.30;;;;;;5113954;28;20030;-68
2022/05/07 11:26:59;;;;;;;16.08;9.18;;;22.40;44.40;;;;;;5113954;28;20043;-69
2022/05/07 11:29:26;;;;;;;18.17;8.98;;;22.50;43.50;;;;;;5095943;28;20036;-68
2022/05/07 11:32:01;;;;;;;15.40;8.55;;;22.70;44.00;;;;;;5113833;28;20028;-69
2022/05/07 11:34:32;;;;;;;17.45;8.18;;;22.90;45.90;;;;;;5095867;28;20051;-68
2022/05/07 11:37:19;;;;;;;13.97;8.73;;;22.90;44.20;;;;;;5113797;28;20020;-68
2022/05/07 11:39:59;;;;;;;18.88;9.50;;;23.00;43.20;;;;;;5113794;28;20052;-69
2022/05/07 11:42:34;;;;;;;14.60;8.50;;;23.00;41.20;;;;;;5113751;28;20024;-69
2022/05/07 11:48:03;;;;;;;15.20;8.20;;;23.00;45.00;;;;;;5113724;28;20047;-69
2022/05/07 11:50:29;;;;;;;;;;;23.10;44.60;;;;;;5113926;28;20031;-68
2022/05/07 11:52:56;;;;;;;14.43;7.63;;;23.10;43.30;;;;;;5113573;28;19904;-67
2022/05/07 11:55:27;;;;;;;16.70;8.40;;;23.10;44.60;;;;;;5113555;28;20020;-68
2022/05/07 11:57:54;;;;;;;16.20;8.30;;;23.10;44.10;;;;;;5113646;28;20024;-68
2022/05/07 12:00:25;;;;;;;14.65;8.23;;;23.20;43.90;;;;;;5113463;28;20016;-68
2022/05/07 12:02:56;;;;;;;13.65;8.52;;;23.40;43.00;;;;;;5113526;28;20036;-69
2022/05/07 12:05:23;;;;;;;14.82;8.45;;;23.50;43.90;;;;;;5113542;28;20016;-69
2022/05/07 12:07:50;;;;;;;16.83;8.48;;;23.60;43.80;;;;;;5113406;28;20028;-69
2022/05/07 12:10:17;;;;;;;14.88;8.63;;;23.60;43.60;;;;;;5113302;28;20087;-69
2022/05/07 12:12:44;;;;;;;17.65;9.50;;;23.50;43.20;;;;;;5113344;28;20020;-69
2022/05/07 12:15:10;;;;;;;17.92;8.27;;;23.40;43.50;;;;;;5095377;28;20103;-68
2022/05/07 12:20:24;;;;;;;19.33;9.30;;;23.40;43.80;;;;;;5113420;28;20038;-68
2022/05/07 12:31:07;;;;;;;16.90;8.35;;;23.40;44.00;;;;;;5117318;28;20057;-68
2022/05/07 12:33:37;;;;;;;15.35;7.75;;;23.40;43.80;;;;;;5099570;28;20042;-68
2022/05/07 12:36:04;;;;;;;15.93;8.43;;;23.50;43.90;;;;;;5117156;28;20048;-68
2022/05/07 12:38:29;;;;;;;14.93;8.50;;;23.50;43.10;;;;;;5116860;28;20044;-68
2022/05/07 12:40:55;;;;;;;12.95;7.32;;;23.40;42.20;;;;;;5099156;28;20032;-68
2022/05/07 12:43:21;;;;;;;14.68;7.53;;;23.40;42.30;;;;;;5117087;28;20049;-68
2022/05/07 12:45:49;;;;;;;14.18;7.93;;;23.30;41.50;;;;;;5117038;28;20046;-68
2022/05/07 12:48:15;;;;;;;11.52;7.15;;;23.30;41.60;;;;;;5099076;28;20036;-68
2022/05/07 12:50:40;;;;;;;14.38;7.10;;;23.30;42.20;;;;;;5099078;28;20039;-68
2022/05/07 12:53:06;;;;;;;15.00;7.45;;;23.40;42.00;;;;;;5116879;28;20020;-68
2022/05/07 12:55:32;;;;;;;16.65;9.85;;;23.30;41.50;;;;;;5082225;28;20032;-68
2022/05/07 12:57:59;;;;;;;21.08;10.40;;;23.20;43.00;;;;;;5116800;28;20023;-68
2022/05/07 13:00:25;;;;;;;15.85;8.85;;;23.30;44.40;;;;;;5116709;28;20035;-68
2022/05/07 13:02:53;;;;;;;14.25;8.85;;;23.30;44.50;;;;;;5116680;28;20048;-68
2022/05/07 13:05:19;;;;;;;17.20;9.27;;;23.40;45.40;;;;;;5098615;28;20024;-68
2022/05/07 13:07:44;;;;;;;17.23;9.05;;;23.50;44.60;;;;;;5116610;28;20051;-68
2022/05/07 13:10:10;;;;;;;16.33;9.75;;;23.60;45.10;;;;;;5116413;28;20032;-68
2022/05/07 13:12:36;;;;;;;16.23;9.55;;;23.50;44.70;;;;;;5116546;28;20064;-68